Flight Track Log - Related Links

Times and Time Zones

All times are in EDT time to prevent confusion due to time zone crossing. See the SWA1718 flight status page for this flight to view local times or setup timezone preferences in your user account.

Time Position Orientation Groundspeed Altitude Reporting Facility
EDT Latitude Longitude Course Direction KTS MPH feet Rate Location/Type
Wed 07:21:28 AM 41.8000 -87.7000 90° East 160 184 2,800  Level Chicago TRACON
Wed 07:22:23 AM 41.8000 -87.6333 90° East 245 282 4,000 750 Climbing Chicago TRACON
Wed 07:23:04 AM 41.8150 -87.5775 70° East 244 281 4,000 176 Level Chicago Center
Wed 07:24:05 AM 41.8844 -87.5419 21° North 261 300 4,300 1,063 Climbing Chicago Center
Wed 07:24:23 AM 41.9167 -87.5500 349° North 277 319 5,400 2,692 Climbing Chicago TRACON
Wed 07:25:23 AM 41.9833 -87.5833 340° North 283 326 7,800 3,048 Climbing Chicago TRACON
Wed 07:26:29 AM 42.0333 -87.6667 309° West 269 310 11,800 2,711 Climbing Chicago TRACON
Wed 07:28:09 AM 42.1661 -87.7222 343° North 342 394 15,300 2,111 Climbing Chicago Center
Wed 07:29:11 AM 42.2642 -87.7806 336° Northwest 383 441 17,500 2,557 Climbing Chicago Center
Wed 07:30:11 AM 42.3719 -87.8444 336° Northwest 393 452 20,500 2,459 Climbing Chicago Center
Wed 07:31:13 AM 42.4783 -87.9069 337° Northwest 409 471 22,500 2,293 Climbing Chicago Center
Wed 07:32:14 AM 42.6078 -87.9831 337° Northwest 430 495 25,200 2,311 Climbing Chicago Center
Wed 07:33:15 AM 42.6897 -88.0919 316° Northwest 419 482 27,200 1,721 Climbing Chicago Center
Wed 07:34:16 AM 42.7567 -88.2217 305° West 417 480 28,700 1,574 Climbing Chicago Center
Wed 07:35:17 AM 42.8258 -88.3533 306° West 424 488 30,400 1,610 Climbing Chicago Center
Wed 07:36:19 AM 42.8944 -88.4839 306° West 422 486 32,000 1,659 Climbing Chicago Center
Wed 07:37:20 AM 42.9628 -88.6164 305° West 423 487 33,800 1,869 Climbing Chicago Center
Wed 07:38:21 AM 43.0306 -88.7447 306° West 416 479 35,800 1,756 Climbing Chicago Center
Wed 07:39:23 AM 43.0953 -88.8692 305° West 403 464 37,400 1,073 Climbing Chicago Center
Wed 07:40:24 AM 43.1589 -88.9933 305° West 397 457 38,000 295 Climbing Chicago Center
Wed 07:41:25 AM 43.2219 -89.1175 305° West 395 455 38,000  Level Chicago Center
Wed 07:42:26 AM 43.2858 -89.2411 305° West 394 453 38,000  Level Chicago Center
Wed 07:43:28 AM 43.3497 -89.3675 305° West 399 459 38,000  Level Chicago Center
Wed 07:44:29 AM 43.4267 -89.5172 305° West 409 471 38,000  Level Chicago Center
Wed 07:45:30 AM 43.4894 -89.6478 304° West 408 470 38,000  Level Chicago Center
Wed 07:46:32 AM 43.5544 -89.7806 304° West 416 479 38,000  Level Chicago Center
Wed 07:47:15 AM 43.5781 -89.8783 288° West 408 470 38,000  Level Minneapolis Center
Wed 07:48:16 AM 43.6094 -90.0267 286° West 403 464 38,000  Level Minneapolis Center
Wed 07:49:17 AM 43.6411 -90.1761 286° West 403 464 38,000  Level Minneapolis Center
Wed 07:50:17 AM 43.6711 -90.3206 286° West 403 464 38,000  Level Minneapolis Center
Wed 07:51:18 AM 43.7031 -90.4683 287° West 405 466 38,000  Level Minneapolis Center
Wed 07:52:19 AM 43.7356 -90.6164 287° West 407 468 38,000  Level Minneapolis Center
Wed 07:53:20 AM 43.7669 -90.7650 286° West 407 468 38,000  Level Minneapolis Center
Wed 07:54:21 AM 43.8039 -90.9469 286° West 412 474 38,000  Level Minneapolis Center
Wed 07:55:21 AM 43.8364 -91.0986 287° West 415 478 38,000  Level Minneapolis Center
Wed 07:56:22 AM 43.8683 -91.2500 286° West 414 476 38,000  Level Minneapolis Center
Wed 07:57:23 AM 43.8983 -91.3972 286° West 407 468 38,000  Level Minneapolis Center
Wed 07:58:24 AM 43.9269 -91.5458 285° West 404 465 38,000  Level Minneapolis Center
Wed 07:59:25 AM 43.9533 -91.7103 283° West 401 461 38,000  Level Minneapolis Center
Wed 08:00:26 AM 43.9778 -91.8592 283° West 398 458 38,000  Level Minneapolis Center
Wed 08:01:27 AM 44.0022 -92.0086 283° West 398 458 38,000  Level Minneapolis Center
Wed 08:02:40 AM 44.0258 -92.1561 283° West 394 453 38,000  Level Minneapolis Center
Wed 08:03:41 AM 44.0553 -92.3325 283° West 391 450 38,000  Level Minneapolis Center
Wed 08:04:42 AM 44.0792 -92.4781 283° West 389 448 38,000  Level Minneapolis Center
Wed 08:05:43 AM 44.1017 -92.6242 282° West 388 447 38,000  Level Minneapolis Center
Wed 08:06:44 AM 44.1247 -92.7703 282° West 387 445 38,000  Level Minneapolis Center
Wed 08:07:45 AM 44.1478 -92.9186 282° West 391 450 38,000  Level Minneapolis Center
Wed 08:08:46 AM 44.1703 -93.0672 282° West 392 451 38,000  Level Minneapolis Center
Wed 08:09:47 AM 44.1894 -93.2175 280° West 393 452 38,000  Level Minneapolis Center
Wed 08:10:48 AM 44.1489 -93.3775 251° West 364 419 38,000  Level Minneapolis Center
Wed 08:11:49 AM 44.1150 -93.5097 250° West 364 419 38,000  Level Minneapolis Center
Wed 08:12:50 AM 44.0814 -93.6417 251° West 363 418 38,000  Level Minneapolis Center
Wed 08:13:51 AM 44.0461 -93.7722 249° West 362 417 38,000  Level Minneapolis Center
Wed 08:14:52 AM 44.0128 -93.9033 251° West 361 415 38,000  Level Minneapolis Center
Wed 08:15:53 AM 43.9778 -94.0322 249° West 359 413 38,000  Level Minneapolis Center
Wed 08:16:54 AM 43.9439 -94.1614 250° West 358 412 38,000  Level Minneapolis Center
Wed 08:17:55 AM 43.9058 -94.3014 249° West 353 406 38,000  Level Minneapolis Center
Wed 08:18:56 AM 43.8714 -94.4283 249° West 352 405 38,000  Level Minneapolis Center
Wed 08:19:57 AM 43.8364 -94.5564 249° West 354 407 38,000  Level Minneapolis Center
Wed 08:20:59 AM 43.8017 -94.6842 249° West 356 410 38,000  Level Minneapolis Center
Wed 08:22:00 AM 43.7653 -94.8133 249° West 359 413 38,000  Level Minneapolis Center
Wed 08:23:01 AM 43.7306 -94.9408 249° West 356 410 38,000  Level Minneapolis Center
Wed 08:24:02 AM 43.6950 -95.0697 249° West 358 412 38,000  Level Minneapolis Center
Wed 08:25:03 AM 43.6597 -95.1969 249° West 355 409 38,000  Level Minneapolis Center
Wed 08:26:04 AM 43.6244 -95.3231 249° West 353 406 38,000  Level Minneapolis Center
Wed 08:27:17 AM 43.5811 -95.4708 248° West 347 399 38,000  Level Minneapolis Center
Wed 08:28:19 AM 43.5467 -95.5947 249° West 345 397 38,000  Level Minneapolis Center
Wed 08:29:20 AM 43.5039 -95.7411 248° West 343 395 38,000  Level Minneapolis Center
Wed 08:30:21 AM 43.4692 -95.8667 249° West 349 402 38,000  Level Minneapolis Center
Wed 08:31:22 AM 43.4331 -95.9894 248° West 346 398 38,000  Level Minneapolis Center
Wed 08:32:23 AM 43.3964 -96.1142 248° West 349 402 38,000  Level Minneapolis Center
Wed 08:33:24 AM 43.3611 -96.2375 249° West 348 400 38,000  Level Minneapolis Center
Wed 08:34:26 AM 43.3244 -96.3606 248° West 346 398 38,000  Level Minneapolis Center
Wed 08:35:27 AM 43.2886 -96.4842 248° West 348 400 38,000  Level Minneapolis Center
Wed 08:36:28 AM 43.2517 -96.6072 248° West 348 400 38,000  Level Minneapolis Center
Wed 08:37:29 AM 43.2139 -96.7308 247° West 350 403 38,000  Level Minneapolis Center
Wed 08:38:30 AM 43.1772 -96.8572 248° West 355 409 38,000  Level Minneapolis Center
Wed 08:39:31 AM 43.1411 -96.9797 248° West 351 404 38,000  Level Minneapolis Center
Wed 08:40:33 AM 43.1017 -97.1014 246° West 350 403 38,000  Level Minneapolis Center
Wed 08:41:34 AM 43.0569 -97.2489 248° West 350 403 38,000  Level Minneapolis Center
Wed 08:42:35 AM 43.0189 -97.3739 247° West 354 407 38,000  Level Minneapolis Center
Wed 08:43:36 AM 42.9803 -97.4978 247° West 354 407 38,000  Level Minneapolis Center
Wed 08:44:37 AM 42.9419 -97.6247 248° West 359 413 38,000  Level Minneapolis Center
Wed 08:45:39 AM 42.9028 -97.7517 247° West 361 415 38,000  Level Minneapolis Center
Wed 08:46:40 AM 42.8639 -97.8797 248° West 364 419 38,000  Level Minneapolis Center
Wed 08:47:41 AM 42.8239 -98.0058 247° West 364 419 38,000  Level Minneapolis Center
Wed 08:48:42 AM 42.7836 -98.1333 247° West 366 421 38,000  Level Minneapolis Center
Wed 08:49:43 AM 42.7389 -98.2744 247° West 366 421 38,000  Level Minneapolis Center
Wed 08:50:45 AM 42.6989 -98.4036 247° West 369 425 38,000  Level Minneapolis Center
Wed 08:51:46 AM 42.6589 -98.5328 247° West 371 427 38,000  Level Minneapolis Center
Wed 08:52:47 AM 42.6169 -98.6583 246° West 369 425 38,000  Level Minneapolis Center
Wed 08:53:48 AM 42.5767 -98.7878 247° West 370 426 38,000  Level Minneapolis Center
Wed 08:54:50 AM 42.5347 -98.9169 246° West 372 428 38,000  Level Minneapolis Center
Wed 08:55:51 AM 42.4942 -99.0458 247° West 373 429 38,000  Level Minneapolis Center
Wed 08:56:52 AM 42.4514 -99.1761 246° West 376 433 38,000 -344 Level Minneapolis Center
Wed 08:57:53 AM 42.3994 -99.3325 246° West 380 437 37,300 -836 Descending Minneapolis Center
Wed 08:58:54 AM 42.3558 -99.4653 246° West 384 442 36,300 -634 Descending Minneapolis Center
Wed 08:59:56 AM 42.3117 -99.5978 246° West 387 445 36,000 -146 Descending Minneapolis Center
Wed 09:00:57 AM 42.2686 -99.7286 246° West 385 443 36,000  Level Minneapolis Center
Wed 09:01:50 AM 42.2331 -99.8356 246° West 389 448 36,000  Level Denver Center
Wed 09:02:51 AM 42.1828 -99.9822 245° Southwest 387 445 36,000  Level Denver Center
Wed 09:03:52 AM 42.1400 -100.1094 246° West 390 449 36,000  Level Denver Center
Wed 09:04:52 AM 42.0889 -100.2589 245° Southwest 394 453 36,000  Level Denver Center
Wed 09:06:05 AM 42.0447 -100.3889 245° Southwest 398 458 36,000  Level Denver Center
Wed 09:07:06 AM 41.9853 -100.5639 245° Southwest 403 464 36,000  Level Denver Center
Wed 09:08:07 AM 41.9408 -100.6914 245° Southwest 398 458 36,000  Level Denver Center
Wed 09:09:08 AM 41.8956 -100.8211 245° Southwest 401 461 36,000  Level Denver Center
Wed 09:10:09 AM 41.8431 -100.9733 245° Southwest 403 464 36,000  Level Denver Center
Wed 09:11:10 AM 41.7978 -101.1031 245° Southwest 403 464 36,000  Level Denver Center
Wed 09:12:11 AM 41.7514 -101.2361 245° Southwest 411 473 36,000  Level Denver Center
Wed 09:13:12 AM 41.6961 -101.3922 245° Southwest 416 479 36,000  Level Denver Center
Wed 09:14:13 AM 41.6492 -101.5258 245° Southwest 417 480 36,000  Level Denver Center
Wed 09:15:14 AM 41.6003 -101.6603 244° Southwest 420 483 36,000  Level Denver Center
Wed 09:16:15 AM 41.5458 -101.8139 245° Southwest 413 475 36,000  Level Denver Center
Wed 09:17:16 AM 41.4969 -101.9472 244° Southwest 417 480 36,000  Level Denver Center
Wed 09:18:17 AM 41.4406 -102.1039 244° Southwest 422 486 36,000  Level Denver Center
Wed 09:19:17 AM 41.3911 -102.2392 244° Southwest 426 490 36,000  Level Denver Center
Wed 09:20:18 AM 41.3419 -102.3722 244° Southwest 421 484 36,000  Level Denver Center
Wed 09:21:19 AM 41.2836 -102.5308 244° Southwest 429 494 36,000  Level Denver Center
Wed 09:22:20 AM 41.2375 -102.6564 244° Southwest 425 489 36,000  Level Denver Center
Wed 09:23:21 AM 41.1853 -102.7986 244° Southwest 421 484 36,000  Level Denver Center
Wed 09:24:22 AM 41.1269 -102.9542 244° Southwest 421 484 36,000  Level Denver Center
Wed 09:25:23 AM 41.0794 -103.0800 243° Southwest 423 487 36,000  Level Denver Center
Wed 09:26:24 AM 41.0211 -103.2372 244° Southwest 424 488 36,000  Level Denver Center
Wed 09:27:25 AM 40.9694 -103.3719 243° Southwest 432 497 36,000 98 Level Denver Center
Wed 09:28:26 AM 40.9150 -103.5147 243° Southwest 431 496 36,200 787 Climbing Denver Center
Wed 09:29:27 AM 40.8617 -103.6542 243° Southwest 423 487 37,600 893 Climbing Denver Center
Wed 09:30:27 AM 40.8075 -103.7950 243° Southwest 429 494 38,000 198 Climbing Denver Center
Wed 09:31:28 AM 40.7522 -103.9389 243° Southwest 435 501 38,000  Level Denver Center
Wed 09:32:29 AM 40.6950 -104.0856 243° Southwest 446 513 38,000  Level Denver Center
Wed 09:33:30 AM 40.6394 -104.2339 244° Southwest 449 517 38,000  Level Denver Center
Wed 09:34:31 AM 40.5825 -104.3761 242° Southwest 439 505 38,000  Level Denver Center
Wed 09:35:32 AM 40.5253 -104.5214 243° Southwest 442 509 38,000  Level Denver Center
Wed 09:36:33 AM 40.4681 -104.6650 242° Southwest 440 506 38,000  Level Denver Center
Wed 09:37:34 AM 40.4103 -104.8097 242° Southwest 445 512 38,000  Level Denver Center
Wed 09:38:35 AM 40.3433 -104.9764 242° Southwest 441 507 38,000  Level Denver Center
Wed 09:39:36 AM 40.2861 -105.1192 242° Southwest 441 507 38,000  Level Denver Center
Wed 09:40:37 AM 40.2283 -105.2611 242° Southwest 438 504 38,000  Level Denver Center
Wed 09:41:38 AM 40.1706 -105.4044 242° Southwest 441 507 38,000  Level Denver Center
Wed 09:42:39 AM 40.1114 -105.5475 242° Southwest 444 511 38,000  Level Denver Center
Wed 09:43:40 AM 40.0542 -105.6881 242° Southwest 441 507 38,000  Level Denver Center
Wed 09:44:41 AM 39.9950 -105.8289 241° Southwest 441 507 38,000  Level Denver Center
Wed 09:45:42 AM 39.9381 -105.9675 242° Southwest 434 499 38,000  Level Denver Center
Wed 09:46:43 AM 39.8792 -106.1097 242° Southwest 441 507 38,000  Level Denver Center
Wed 09:47:44 AM 39.8194 -106.2528 242° Southwest 445 512 38,000  Level Denver Center
Wed 09:48:45 AM 39.7606 -106.3958 242° Southwest 446 513 38,000  Level Denver Center
Wed 09:49:46 AM 39.7008 -106.5386 242° Southwest 447 514 38,000  Level Denver Center
Wed 09:50:47 AM 39.6383 -106.6881 242° Southwest 449 517 38,000  Level Denver Center
Wed 09:51:48 AM 39.5800 -106.8258 241° Southwest 454 522 38,000  Level Denver Center
Wed 09:52:49 AM 39.5094 -106.9858 240° Southwest 457 526 38,000  Level Denver Center
Wed 09:53:50 AM 39.4514 -107.1225 241° Southwest 451 519 38,000  Level Denver Center
Wed 09:54:51 AM 39.3922 -107.2617 241° Southwest 458 527 38,000  Level Denver Center
Wed 09:55:52 AM 39.3208 -107.4250 241° Southwest 466 536 38,000  Level Denver Center
Wed 09:56:53 AM 39.2606 -107.5639 241° Southwest 464 534 38,000  Level Denver Center
Wed 09:57:54 AM 39.2008 -107.7017 241° Southwest 460 529 38,000  Level Denver Center
Wed 09:58:55 AM 39.1281 -107.8639 240° Southwest 464 534 38,000  Level Denver Center
Wed 09:59:56 AM 39.0678 -108.0031 241° Southwest 464 534 38,000  Level Denver Center
Wed 10:00:58 AM 39.0067 -108.1417 240° Southwest 464 534 38,000  Level Denver Center
Wed 10:01:59 AM 38.9344 -108.3022 240° Southwest 464 534 38,000  Level Denver Center
Wed 10:03:00 AM 38.8736 -108.4408 241° Southwest 463 533 38,000  Level Denver Center
Wed 10:04:01 AM 38.8114 -108.5786 240° Southwest 464 534 38,000  Level Denver Center
Wed 10:05:02 AM 38.7386 -108.7403 240° Southwest 467 537 38,000  Level Denver Center
Wed 10:06:03 AM 38.6753 -108.8783 240° Southwest 468 539 38,000  Level Denver Center
Wed 10:07:04 AM 38.6128 -109.0169 240° Southwest 469 540 38,000  Level Denver Center
Wed 10:08:06 AM 38.5392 -109.1767 240° Southwest 466 536 38,000  Level Denver Center
Wed 10:09:07 AM 38.4756 -109.3142 239° Southwest 470 541 38,000  Level Denver Center
Wed 10:10:08 AM 38.4025 -109.4769 240° Southwest 470 541 38,000  Level Denver Center
Wed 10:11:09 AM 38.3406 -109.6150 240° Southwest 469 540 38,000  Level Denver Center
Wed 10:12:10 AM 38.2753 -109.7467 238° Southwest 462 532 38,000  Level Denver Center
Wed 10:13:12 AM 38.2008 -109.9042 239° Southwest 462 532 38,000  Level Denver Center
Wed 10:14:13 AM 38.1356 -110.0400 239° Southwest 466 536 38,000  Level Denver Center
Wed 10:15:14 AM 38.0719 -110.1758 239° Southwest 467 537 38,000  Level Denver Center
Wed 10:16:16 AM 37.9753 -110.3161 229° Southwest 472 543 38,000  Level Denver Center
Wed 10:17:17 AM 37.8908 -110.4367 228° Southwest 478 550 38,000  Level Denver Center
Wed 10:18:18 AM 37.8033 -110.5636 229° Southwest 478 550 38,000  Level Denver Center
Wed 10:19:20 AM 37.7153 -110.6906 229° Southwest 479 551 38,000  Level Denver Center
Wed 10:20:21 AM 37.6269 -110.8153 228° Southwest 477 549 38,000  Level Denver Center
Wed 10:21:23 AM 37.5206 -110.9672 229° Southwest 479 551 38,000  Level Denver Center
Wed 10:22:24 AM 37.4311 -111.0936 228° Southwest 482 555 38,000  Level Denver Center
Wed 10:23:25 AM 37.3414 -111.2183 228° Southwest 482 555 38,000  Level Denver Center
Wed 10:24:27 AM 37.2514 -111.3456 228° Southwest 486 559 38,000  Level Denver Center
Wed 10:25:28 AM 37.1600 -111.4725 228° Southwest 488 562 38,000  Level Denver Center
Wed 10:26:30 AM 37.0728 -111.5992 229° Southwest 483 556 38,000  Level Denver Center
Wed 10:27:31 AM 37.0017 -111.7414 238° Southwest 482 555 38,000  Level Denver Center
Wed 10:28:33 AM 36.9292 -111.8850 238° Southwest 485 558 38,000  Level Denver Center
Wed 10:29:34 AM 36.8575 -112.0292 238° Southwest 488 562 38,000  Level Denver Center
Wed 10:30:36 AM 36.7858 -112.1728 238° Southwest 486 559 38,000  Level Denver Center
Wed 10:30:54 AM 36.7539 -112.2336 237° Southwest 487 560 38,000  Level Los Angeles Center
Wed 10:31:56 AM 36.6819 -112.3750 238° Southwest 484 557 38,000  Level Los Angeles Center
Wed 10:32:58 AM 36.6089 -112.5172 237° Southwest 485 558 38,000  Level Los Angeles Center
Wed 10:34:00 AM 36.5364 -112.6583 237° Southwest 483 556 38,000  Level Los Angeles Center
Wed 10:35:02 AM 36.4503 -112.8267 238° Southwest 480 552 38,000  Level Los Angeles Center
Wed 10:36:03 AM 36.3783 -112.9664 237° Southwest 479 551 38,000  Level Los Angeles Center
Wed 10:37:05 AM 36.3056 -113.1039 237° Southwest 478 550 38,000  Level Los Angeles Center
Wed 10:38:07 AM 36.2331 -113.2411 237° Southwest 477 549 38,000  Level Los Angeles Center
Wed 10:39:08 AM 36.1619 -113.3853 239° Southwest 482 555 38,000  Level Los Angeles Center
Wed 10:40:10 AM 36.0894 -113.5244 237° Southwest 485 558 38,000  Level Los Angeles Center
Wed 10:41:12 AM 36.0172 -113.6592 236° Southwest 482 555 38,000  Level Los Angeles Center
Wed 10:42:13 AM 35.9328 -113.8222 237° Southwest 477 549 38,000  Level Los Angeles Center
Wed 10:43:15 AM 35.8608 -113.9581 237° Southwest 477 549 38,000  Level Los Angeles Center
Wed 10:44:17 AM 35.7894 -114.0911 237° Southwest 472 543 38,000  Level Los Angeles Center
Wed 10:45:19 AM 35.7192 -114.2256 237° Southwest 470 541 38,000  Level Los Angeles Center
Wed 10:46:20 AM 35.6464 -114.3594 236° Southwest 472 543 38,000  Level Los Angeles Center
Wed 10:47:22 AM 35.5739 -114.4950 237° Southwest 476 548 38,000  Level Los Angeles Center
Wed 10:48:24 AM 35.4867 -114.6547 236° Southwest 474 545 38,000  Level Los Angeles Center
Wed 10:49:26 AM 35.4133 -114.7894 236° Southwest 476 548 38,000  Level Los Angeles Center
Wed 10:50:27 AM 35.3475 -114.9089 236° Southwest 476 548 38,000  Level Los Angeles Center
Wed 10:51:29 AM 35.2586 -115.0719 236° Southwest 478 550 38,000  Level Los Angeles Center
Wed 10:52:31 AM 35.1833 -115.2078 236° Southwest 481 554 38,000  Level Los Angeles Center
Wed 10:53:33 AM 35.1083 -115.3428 236° Southwest 480 552 38,000 -341 Level Los Angeles Center
Wed 10:54:34 AM 35.0317 -115.4786 235° Southwest 482 555 37,300 -780 Descending Los Angeles Center
Wed 10:55:36 AM 34.9561 -115.6175 236° Southwest 487 560 36,400 -629 Descending Los Angeles Center
Wed 10:56:38 AM 34.8800 -115.7553 236° Southwest 490 564 36,000 -195 Descending Los Angeles Center
Wed 10:57:39 AM 34.8053 -115.8897 236° Southwest 483 556 36,000 -585 Level Los Angeles Center
Wed 10:58:41 AM 34.7133 -116.0492 235° Southwest 480 552 34,800 -1,065 Descending Los Angeles Center
Wed 10:59:43 AM 34.6397 -116.1828 236° Southwest 478 550 33,800 -919 Descending Los Angeles Center
Wed 11:00:45 AM 34.5636 -116.3169 235° Southwest 480 552 32,900 -1,355 Descending Los Angeles Center
Wed 11:01:47 AM 34.4875 -116.4503 235° Southwest 481 554 31,000 -2,146 Descending Los Angeles Center
Wed 11:02:48 AM 34.4111 -116.5828 235° Southwest 479 551 28,500 -2,878 Descending Los Angeles Center
Wed 11:03:50 AM 34.3386 -116.7086 235° Southwest 459 528 25,100 -2,758 Descending Los Angeles Center
Wed 11:04:52 AM 34.2672 -116.8322 235° Southwest 448 516 22,800 -2,129 Descending Los Angeles Center
Wed 11:05:54 AM 34.2014 -116.9450 235° Southwest 414 476 20,700 -2,129 Descending Los Angeles Center
Wed 11:06:56 AM 34.1267 -117.0750 235° Southwest 394 453 18,400 -1,966 Descending Los Angeles Center
Wed 11:07:53 AM 34.0833 -117.1833 244° Southwest 363 418 16,800 -1,838 Descending Southern California TRACON
Wed 11:08:47 AM 34.0500 -117.2833 248° West 354 407 15,000 -1,950 Descending Southern California TRACON
Wed 11:09:53 AM 34.0333 -117.4000 260° West 354 407 12,900 -1,600 Descending Southern California TRACON
Wed 11:10:47 AM 34.0167 -117.5000 259° West 313 360 11,800 -1,250 Descending Southern California TRACON
Wed 11:11:53 AM 34.0167 -117.6167 270° West 364 419 10,400 -1,048 Descending Southern California TRACON
Wed 11:12:53 AM 34.0000 -117.7167 259° West 281 323 9,600 -1,053 Descending Southern California TRACON
Wed 11:13:47 AM 34.0000 -117.8000 270° West 288 331 8,400 -1,316 Descending Southern California TRACON
Wed 11:14:47 AM 33.9833 -117.9000 259° West 282 325 7,100 -1,150 Descending Southern California TRACON
Wed 11:15:47 AM 33.9833 -117.9833 270° West 264 304 6,100 -950 Descending Southern California TRACON
Wed 11:16:47 AM 33.9667 -118.0667 256° West 240 276 5,200 -1,000 Descending Southern California TRACON
Wed 11:17:47 AM 33.9667 -118.1500 270° West 235 270 4,100 -1,200 Descending Southern California TRACON
Wed 11:18:17 AM 33.9592 -118.1794 253° West 236 272 3,400 -1,109 Descending Los Angeles Center
Wed 11:19:19 AM 33.9508 -118.2522 262° West 230 265 2,400 -871 Descending Los Angeles Center
Wed 11:20:21 AM 33.9447 -118.3081 262° West 193 222 1,600 -864 Descending Los Angeles Center
Wed 11:21:24 AM 33.9411 -118.3517 264° West 156 180 600 -672 Descending Los Angeles Center
Wed 11:22:26 AM 33.9372 -118.3997 264° West 143 165 200 -387 Descending Los Angeles Center
Wed 11:24:00 AM 33.9333 -118.4000 259° West  Level FlightAware Approximate
Wed 11:31:00 AM 33.9425 -118.4081 259° West  Level Estimated

Login

Don't have an account? Register now (free) for customized features, flight alerts, and more!